Time;durP1;ratioP1;P1;durP2;ratioP2;P2;SDS_P1;SDS_P2;PMS_P1;PMS_P2;Temp;Humidity;BMP_temperature;BMP_pressure;BME280_temperature;BME280_humidity;BME280_pressure;Samples;Min_cycle;Max_cycle;Signal;HPM_P1;HPM_P2
2021/07/13 00:00:42;;;;;;;85.75;77.15;;;19.40;99.90;;;;;;5027261;28;20053;-54
2021/07/13 00:03:09;;;;;;;86.78;78.35;;;19.50;99.90;;;;;;5032457;28;20126;-57
2021/07/13 00:05:45;;;;;;;83.82;75.50;;;19.40;99.90;;;;;;5027400;28;20462;-57
2021/07/13 00:08:27;;;;;;;85.80;77.18;;;19.50;99.90;;;;;;5027998;28;20042;-54
2021/07/13 00:10:59;;;;;;;81.95;73.57;;;19.50;99.90;;;;;;5027841;28;20114;-54
2021/07/13 00:13:28;;;;;;;83.68;75.40;;;19.50;99.90;;;;;;5029237;28;20524;-55
2021/07/13 00:16:00;;;;;;;82.65;74.72;;;19.50;99.90;;;;;;5030425;28;20049;-57
2021/07/13 00:18:36;;;;;;;83.22;75.22;;;19.50;99.90;;;;;;5027727;28;20183;-56
2021/07/13 00:21:09;;;;;;;81.10;73.30;;;19.50;99.90;;;;;;5027174;28;20056;-55
2021/07/13 00:23:38;;;;;;;78.38;70.55;;;19.40;99.90;;;;;;5027386;28;20140;-56
2021/07/13 00:26:06;;;;;;;81.97;73.57;;;19.40;99.90;;;;;;5026843;28;20414;-55
2021/07/13 00:28:35;;;;;;;76.43;69.13;;;19.40;99.90;;;;;;5027413;28;20053;-56
2021/07/13 00:31:04;;;;;;;80.45;72.95;;;19.30;99.90;;;;;;5027495;28;20096;-56
2021/07/13 00:33:32;;;;;;;79.13;71.10;;;19.30;99.90;;;;;;5027506;28;20485;-56
2021/07/13 00:36:06;;;;;;;78.03;70.47;;;19.30;99.90;;;;;;5027542;28;20053;-55
2021/07/13 00:38:40;;;;;;;79.90;71.82;;;19.30;99.90;;;;;;5027224;28;20076;-56
2021/07/13 00:41:14;;;;;;;76.97;69.25;;;19.20;99.90;;;;;;5026014;28;20053;-56
2021/07/13 00:43:41;;;;;;;76.72;69.15;;;19.20;99.90;;;;;;5026933;28;20516;-55
2021/07/13 00:46:11;;;;;;;74.88;67.55;;;19.20;99.90;;;;;;5026605;28;20085;-56
2021/07/13 00:48:43;;;;;;;78.47;70.40;;;19.10;99.90;;;;;;5026967;28;20097;-56
2021/07/13 00:51:11;;;;;;;73.18;65.80;;;19.10;99.90;;;;;;5027231;28;20533;-54
2021/07/13 00:53:41;;;;;;;74.72;67.38;;;19.10;99.90;;;;;;5026756;28;20111;-55
2021/07/13 00:56:09;;;;;;;77.88;69.78;;;19.10;99.90;;;;;;5026722;28;20053;-55
2021/07/13 00:58:39;;;;;;;79.07;71.03;;;19.00;99.90;;;;;;5029974;28;20509;-55
2021/07/13 01:01:11;;;;;;;77.55;69.95;;;19.00;99.90;;;;;;5030478;28;20056;-55
2021/07/13 01:03:37;;;;;;;;;;;19.00;99.90;;;;;;5031584;28;20057;-55
2021/07/13 01:06:10;;;;;;;73.45;66.05;;;19.00;99.90;;;;;;5031654;28;19936;-54
2021/07/13 01:09:02;;;;;;;78.57;70.43;;;18.90;99.90;;;;;;5031021;28;20071;-55
2021/07/13 01:11:32;;;;;;;85.30;76.00;;;18.90;99.90;;;;;;5030828;28;21047;-52
2021/07/13 01:14:16;;;;;;;76.90;69.05;;;18.90;99.90;;;;;;5030898;28;20500;-56
2021/07/13 01:16:55;;;;;;;77.22;69.28;;;18.80;99.90;;;;;;5035138;28;20057;-55
2021/07/13 01:19:46;;;;;;;75.82;68.18;;;18.80;99.90;;;;;;5030904;28;20080;-53
2021/07/13 01:22:16;;;;;;;75.28;67.40;;;18.80;99.90;;;;;;5030274;28;20053;-52
2021/07/13 01:24:53;;;;;;;77.63;69.35;;;18.70;99.90;;;;;;5031250;28;20050;-53
2021/07/13 01:27:45;;;;;;;78.72;70.60;;;18.70;99.90;;;;;;5031013;28;20405;-56
2021/07/13 01:30:27;;;;;;;77.65;69.45;;;18.70;99.90;;;;;;5031369;28;20053;-54
2021/07/13 01:33:06;;;;;;;79.07;70.45;;;18.70;99.90;;;;;;5030758;28;20118;-55
2021/07/13 01:35:43;;;;;;;79.63;70.88;;;18.70;99.90;;;;;;5030939;28;20060;-53
2021/07/13 01:38:15;;;;;;;79.00;70.82;;;18.70;99.90;;;;;;5030435;28;20046;-55
2021/07/13 01:40:46;;;;;;;82.75;73.75;;;18.70;99.90;;;;;;5030571;28;20393;-56
2021/07/13 01:43:16;;;;;;;87.93;78.55;;;18.70;99.90;;;;;;5031125;28;20148;-55
2021/07/13 01:45:44;;;;;;;82.18;73.38;;;18.70;99.90;;;;;;5030040;28;20497;-56
2021/07/13 01:48:11;;;;;;;89.20;79.07;;;18.70;99.90;;;;;;5030468;28;20056;-56
2021/07/13 01:50:50;;;;;;;97.32;79.93;;;18.70;99.90;;;;;;5030230;28;20145;-55
2021/07/13 01:53:19;;;;;;;104.30;82.30;;;18.70;99.90;;;;;;5030038;28;20060;-54
2021/07/13 01:55:47;;;;;;;108.03;85.97;;;18.80;99.90;;;;;;5030420;28;20046;-55
2021/07/13 01:58:18;;;;;;;116.88;86.88;;;18.70;99.90;;;;;;5030371;28;20050;-57
2021/07/13 02:00:45;;;;;;;104.50;87.47;;;18.70;99.90;;;;;;5029969;28;20057;-53
2021/07/13 02:03:13;;;;;;;110.88;87.57;;;18.80;99.90;;;;;;5029696;28;20061;-55
2021/07/13 02:05:47;;;;;;;109.35;84.97;;;18.80;99.90;;;;;;5029733;28;20080;-54
2021/07/13 02:08:18;;;;;;;104.20;83.40;;;18.80;99.90;;;;;;5029719;28;20064;-57
2021/07/13 02:10:50;;;;;;;111.30;87.97;;;18.70;99.90;;;;;;5029020;28;20064;-56
2021/07/13 02:13:26;;;;;;;102.22;84.32;;;18.80;99.90;;;;;;5030387;28;20143;-56
2021/07/13 02:15:59;;;;;;;101.63;82.60;;;18.70;99.90;;;;;;5029617;28;20609;-55
2021/07/13 02:18:29;;;;;;;101.20;82.47;;;18.80;99.90;;;;;;5029351;28;20054;-56
2021/07/13 02:20:56;;;;;;;108.88;85.10;;;18.80;99.90;;;;;;5029331;28;20053;-54
2021/07/13 02:23:28;;;;;;;118.28;86.10;;;18.70;99.90;;;;;;5032312;28;20556;-56
2021/07/13 02:26:01;;;;;;;108.22;83.60;;;18.80;99.90;;;;;;5029363;28;20045;-55
2021/07/13 02:28:36;;;;;;;99.00;82.60;;;18.80;99.90;;;;;;5029321;28;20053;-54
2021/07/13 02:31:11;;;;;;;95.45;79.90;;;18.80;99.90;;;;;;5029638;28;20115;-55
2021/07/13 02:34:08;;;;;;;101.05;81.80;;;18.80;99.90;;;;;;5028892;28;20555;-56
2021/07/13 02:36:42;;;;;;;100.93;81.15;;;18.80;99.90;;;;;;4986519;28;20086;-55
2021/07/13 02:39:15;;;;;;;105.20;83.85;;;18.80;99.90;;;;;;4986127;28;20499;-55
2021/07/13 02:41:44;;;;;;;102.13;81.22;;;18.80;99.90;;;;;;4986278;28;20054;-54
2021/07/13 02:44:14;;;;;;;97.20;79.85;;;18.80;99.90;;;;;;4992126;28;20046;-56
2021/07/13 02:46:44;;;;;;;110.30;81.20;;;18.80;99.90;;;;;;4986884;28;20064;-56
2021/07/13 02:49:15;;;;;;;109.00;84.43;;;18.70;99.90;;;;;;4986461;28;20058;-55
2021/07/13 02:51:53;;;;;;;124.95;84.38;;;18.80;99.90;;;;;;4986348;28;20083;-54
2021/07/13 02:54:22;;;;;;;103.50;81.05;;;18.70;99.90;;;;;;4986305;28;20053;-55
2021/07/13 02:56:56;;;;;;;93.38;76.82;;;18.70;99.90;;;;;;4991309;28;20050;-55
2021/07/13 02:59:28;;;;;;;96.63;76.00;;;18.70;99.90;;;;;;4988484;28;20049;-56
2021/07/13 03:01:55;;;;;;;92.70;77.20;;;18.70;99.90;;;;;;4986997;28;20054;-56
2021/07/13 03:04:29;;;;;;;89.78;77.63;;;18.80;99.90;;;;;;4971090;28;20086;-53
2021/07/13 03:06:57;;;;;;;102.85;80.55;;;18.80;99.90;;;;;;4986544;28;20530;-56
2021/07/13 03:09:26;;;;;;;111.47;82.28;;;18.80;99.90;;;;;;4986494;28;20054;-54
2021/07/13 03:11:54;;;;;;;85.63;75.93;;;18.80;99.90;;;;;;4986744;28;20584;-56
2021/07/13 03:14:24;;;;;;;90.47;74.00;;;18.80;99.90;;;;;;5022177;28;20060;-56
2021/07/13 03:16:52;;;;;;;93.93;77.95;;;18.80;99.90;;;;;;5028677;28;20052;-56
2021/07/13 03:19:21;;;;;;;96.20;75.45;;;18.80;99.90;;;;;;5028221;28;20053;-56
2021/07/13 03:21:56;;;;;;;99.35;77.25;;;18.80;99.90;;;;;;5027309;28;20106;-56
2021/07/13 03:24:27;;;;;;;101.75;77.70;;;18.80;99.90;;;;;;5028412;28;20064;-54
2021/07/13 03:26:59;;;;;;;93.88;76.57;;;18.80;99.90;;;;;;5026817;28;20057;-55
2021/07/13 03:29:26;;;;;;;87.10;72.43;;;18.80;99.90;;;;;;5028590;28;20049;-54
2021/07/13 03:31:53;;;;;;;83.40;72.82;;;18.80;99.90;;;;;;5028458;28;20092;-56
2021/07/13 03:34:25;;;;;;;92.80;75.75;;;18.80;99.90;;;;;;5029083;28;20136;-55
2021/07/13 03:36:59;;;;;;;85.00;71.40;;;18.80;99.90;;;;;;5028285;28;20417;-54
2021/07/13 03:39:28;;;;;;;91.65;75.88;;;18.80;99.90;;;;;;5027103;28;20051;-56
2021/07/13 03:42:00;;;;;;;80.22;71.50;;;18.80;99.90;;;;;;5035698;28;20057;-55
2021/07/13 03:44:31;;;;;;;87.90;72.63;;;18.80;99.90;;;;;;5028943;28;20057;-56
2021/07/13 03:47:03;;;;;;;85.25;71.65;;;18.80;99.90;;;;;;5028242;28;20053;-55
2021/07/13 03:49:31;;;;;;;93.38;75.30;;;18.90;99.90;;;;;;5032203;28;20156;-53
2021/07/13 03:51:57;;;;;;;81.90;69.53;;;18.90;99.90;;;;;;5029004;28;20053;-56
2021/07/13 03:54:31;;;;;;;76.72;66.00;;;18.90;99.90;;;;;;5028736;28;20049;-56
2021/07/13 03:57:00;;;;;;;77.10;68.82;;;18.90;99.90;;;;;;5028609;28;20744;-57
2021/07/13 03:59:28;;;;;;;78.13;68.07;;;18.90;99.90;;;;;;5027687;28;20073;-56
2021/07/13 04:01:55;;;;;;;75.60;67.18;;;18.90;99.90;;;;;;5030556;28;20056;-57
2021/07/13 04:04:25;;;;;;;71.97;64.10;;;18.90;99.90;;;;;;5027953;28;20053;-56
2021/07/13 04:06:54;;;;;;;73.90;66.00;;;19.00;99.90;;;;;;5027814;28;20073;-57
2021/07/13 04:09:26;;;;;;;71.88;64.30;;;19.00;99.90;;;;;;5027208;28;20665;-56
2021/07/13 04:12:01;;;;;;;68.47;61.08;;;19.00;99.90;;;;;;5028003;28;20136;-55
2021/07/13 04:14:32;;;;;;;71.15;63.35;;;19.00;99.90;;;;;;5027238;28;20132;-56
2021/07/13 04:17:01;;;;;;;67.03;60.20;;;19.00;99.90;;;;;;5010759;28;20671;-57
2021/07/13 04:19:28;;;;;;;71.75;63.88;;;19.10;99.90;;;;;;5011060;28;20041;-55
2021/07/13 04:21:57;;;;;;;71.00;63.47;;;19.10;99.90;;;;;;5007754;28;20144;-57
2021/07/13 04:24:24;;;;;;;65.55;58.53;;;19.10;99.90;;;;;;5008176;28;20459;-57
2021/07/13 04:26:56;;;;;;;71.57;63.63;;;19.10;99.90;;;;;;5021227;28;20049;-57
2021/07/13 04:29:22;;;;;;;70.38;59.95;;;19.10;99.90;;;;;;5042006;28;20475;-54
2021/07/13 04:31:52;;;;;;;68.57;61.05;;;19.10;99.90;;;;;;5031716;28;20136;-56
2021/07/13 04:34:31;;;;;;;;;;;19.10;99.90;;;;;;5028291;28;20596;-57
2021/07/13 04:37:02;;;;;;;67.78;60.17;;;19.10;99.90;;;;;;5027409;28;19924;-53
2021/07/13 04:39:37;;;;;;;66.50;59.75;;;19.10;99.90;;;;;;5027232;28;20082;-57
2021/07/13 04:42:09;;;;;;;65.47;58.60;;;19.30;99.90;;;;;;5027316;28;20486;-57
2021/07/13 04:44:37;;;;;;;69.65;62.05;;;19.40;99.90;;;;;;5030647;28;20053;-57
2021/07/13 04:47:10;;;;;;;67.40;60.40;;;19.40;99.90;;;;;;5027721;28;20072;-56
2021/07/13 04:49:39;;;;;;;65.88;58.88;;;19.40;99.90;;;;;;5033575;28;20747;-57
2021/07/13 04:52:11;;;;;;;64.88;57.90;;;19.50;99.90;;;;;;5027790;28;20410;-58
2021/07/13 04:54:37;;;;;;;68.13;60.83;;;19.50;99.90;;;;;;5027779;28;20053;-56
2021/07/13 04:57:17;;;;;;;67.57;60.55;;;19.60;99.90;;;;;;5027250;28;20060;-55
2021/07/13 04:59:46;;;;;;;66.22;59.40;;;19.60;99.90;;;;;;5030562;28;20405;-56
2021/07/13 05:02:18;;;;;;;66.57;59.63;;;19.70;99.90;;;;;;5032423;28;20057;-57
2021/07/13 05:04:52;;;;;;;64.85;58.22;;;19.70;99.90;;;;;;5027778;28;20668;-57
2021/07/13 05:07:23;;;;;;;66.53;59.42;;;19.70;99.90;;;;;;5027679;28;20057;-57
2021/07/13 05:09:54;;;;;;;66.03;59.08;;;19.80;99.90;;;;;;5027321;28;20053;-58
2021/07/13 05:12:26;;;;;;;66.13;59.00;;;19.80;99.90;;;;;;5027425;28;20131;-58
2021/07/13 05:14:58;;;;;;;;;;;19.90;99.90;;;;;;5027507;28;20523;-56
2021/07/13 05:17:24;;;;;;;68.90;61.55;;;19.90;99.90;;;;;;5009238;28;19925;-58
2021/07/13 05:19:53;;;;;;;65.35;58.45;;;19.90;99.90;;;;;;5027974;28;20078;-57
2021/07/13 05:22:25;;;;;;;64.22;57.17;;;20.00;99.90;;;;;;5025353;28;20140;-57
2021/07/13 05:24:51;;;;;;;78.60;70.13;;;20.00;99.90;;;;;;5029693;28;20042;-56
2021/07/13 05:27:18;;;;;;;91.18;80.93;;;20.00;99.90;;;;;;5030572;28;20045;-57
2021/07/13 05:29:52;;;;;;;95.55;85.57;;;20.10;99.90;;;;;;5027573;28;20170;-56
2021/07/13 05:32:19;;;;;;;69.15;61.88;;;20.00;99.90;;;;;;5027432;28;20080;-58
2021/07/13 05:34:49;;;;;;;72.68;65.05;;;20.00;99.90;;;;;;5027877;28;20049;-55
2021/07/13 05:37:16;;;;;;;71.68;63.95;;;20.00;99.90;;;;;;5027364;28;20060;-58
2021/07/13 05:39:45;;;;;;;69.40;62.08;;;20.00;99.90;;;;;;5030275;28;20557;-57
2021/07/13 05:42:14;;;;;;;79.90;71.95;;;20.10;99.90;;;;;;5017805;28;20058;-57
2021/07/13 05:44:43;;;;;;;68.90;61.85;;;20.20;99.90;;;;;;5033224;28;20052;-56
2021/07/13 05:47:15;;;;;;;71.85;64.30;;;20.20;99.90;;;;;;5029773;28;20087;-57
2021/07/13 05:49:50;;;;;;;66.25;59.53;;;20.20;99.90;;;;;;5011253;28;20502;-58
2021/07/13 05:52:19;;;;;;;242.45;218.48;;;20.20;99.90;;;;;;5019335;28;20077;-59
2021/07/13 05:54:48;;;;;;;130.75;117.25;;;20.20;99.90;;;;;;5029573;28;20537;-56
2021/07/13 05:57:15;;;;;;;79.22;71.13;;;20.30;99.90;;;;;;5030297;28;20160;-59
2021/07/13 05:59:46;;;;;;;86.50;77.45;;;20.30;99.90;;;;;;5024559;28;20064;-60
2021/07/13 06:02:16;;;;;;;67.07;59.92;;;20.30;99.90;;;;;;5020259;28;20053;-59
2021/07/13 06:04:45;;;;;;;65.45;58.65;;;20.30;99.90;;;;;;5029813;28;20049;-57
2021/07/13 06:07:16;;;;;;;65.90;59.15;;;20.40;99.90;;;;;;5029867;28;20061;-58
2021/07/13 06:09:47;;;;;;;66.15;59.10;;;20.40;99.90;;;;;;5029609;28;20069;-60
2021/07/13 06:12:19;;;;;;;66.10;58.97;;;20.40;99.90;;;;;;5035371;28;20042;-59
2021/07/13 06:14:45;;;;;;;62.75;55.95;;;20.40;99.90;;;;;;5033304;28;20040;-61
2021/07/13 06:17:18;;;;;;;65.47;58.70;;;20.50;99.90;;;;;;5029421;28;20057;-54
2021/07/13 06:19:47;;;;;;;63.17;56.70;;;20.50;99.90;;;;;;5028936;28;20051;-56
2021/07/13 06:22:21;;;;;;;61.28;55.05;;;20.50;99.90;;;;;;5029323;28;20049;-57
2021/07/13 06:24:50;;;;;;;59.80;53.85;;;20.70;99.90;;;;;;5030098;28;20058;-55
2021/07/13 06:27:22;;;;;;;59.58;53.42;;;20.60;99.90;;;;;;5028039;28;20485;-57
2021/07/13 06:29:52;;;;;;;74.70;67.05;;;20.70;99.90;;;;;;5030177;28;20462;-57
2021/07/13 06:32:18;;;;;;;72.65;65.35;;;20.70;99.90;;;;;;5029618;28;20054;-59
2021/07/13 06:34:45;;;;;;;61.22;55.30;;;20.80;99.90;;;;;;5031802;28;20053;-57
2021/07/13 06:37:17;;;;;;;61.35;55.00;;;20.80;99.90;;;;;;5031802;28;20041;-57
2021/07/13 06:39:43;;;;;;;60.75;54.67;;;20.90;99.90;;;;;;5029774;28;20041;-58
2021/07/13 06:42:12;;;;;;;58.42;52.60;;;20.90;99.90;;;;;;5044660;28;20053;-58
2021/07/13 06:44:39;;;;;;;59.95;53.65;;;21.00;99.90;;;;;;5028702;28;20760;-57
2021/07/13 06:47:13;;;;;;;52.60;47.30;;;21.00;99.90;;;;;;5031637;28;20060;-58
2021/07/13 06:49:44;;;;;;;54.67;49.20;;;21.00;99.90;;;;;;5029105;28;20050;-57
2021/07/13 06:52:16;;;;;;;53.60;48.47;;;21.00;99.90;;;;;;5032553;28;20413;-57
2021/07/13 06:54:47;;;;;;;58.95;53.08;;;21.10;99.90;;;;;;5029337;28;20111;-58
2021/07/13 06:57:16;;;;;;;50.65;45.53;;;21.10;99.90;;;;;;5029147;28;20405;-59
2021/07/13 06:59:50;;;;;;;90.97;81.95;;;21.10;99.90;;;;;;5029193;28;20152;-58
2021/07/13 07:02:16;;;;;;;50.80;45.80;;;21.10;99.90;;;;;;5029173;28;20080;-58
2021/07/13 07:04:43;;;;;;;51.47;46.47;;;21.10;99.90;;;;;;5029357;28;20406;-59
2021/07/13 07:07:12;;;;;;;52.40;47.10;;;21.10;99.90;;;;;;5013606;28;20057;-59
2021/07/13 07:09:43;;;;;;;50.78;45.78;;;21.20;99.90;;;;;;5029657;28;20517;-60
2021/07/13 07:12:12;;;;;;;48.85;43.90;;;21.20;99.90;;;;;;5029082;28;20072;-58
2021/07/13 07:14:41;;;;;;;49.15;44.47;;;21.20;99.90;;;;;;5029178;28;20488;-59
2021/07/13 07:17:09;;;;;;;49.35;44.30;;;21.20;99.90;;;;;;5028888;28;20463;-58
2021/07/13 07:19:36;;;;;;;56.70;50.90;;;21.20;99.90;;;;;;5029241;28;20452;-58
2021/07/13 07:22:05;;;;;;;46.50;41.88;;;21.20;99.90;;;;;;5029066;28;20089;-59
2021/07/13 07:24:31;;;;;;;47.67;42.88;;;21.30;99.90;;;;;;5029554;28;20053;-59
2021/07/13 07:27:04;;;;;;;45.83;41.17;;;21.40;99.90;;;;;;5028116;28;20060;-58
2021/07/13 07:29:32;;;;;;;47.22;42.53;;;21.40;99.90;;;;;;5032092;28;20132;-59
2021/07/13 07:32:01;;;;;;;64.35;57.80;;;21.40;99.90;;;;;;5027910;28;20562;-60
2021/07/13 07:34:30;;;;;;;47.17;42.13;;;21.40;99.90;;;;;;5026972;28;20092;-56
2021/07/13 07:37:08;;;;;;;55.50;49.63;;;21.40;99.90;;;;;;5028134;28;20490;-58
2021/07/13 07:39:37;;;;;;;46.55;41.85;;;21.30;99.90;;;;;;5028545;28;20092;-59
2021/07/13 07:42:09;;;;;;;57.33;51.47;;;21.40;99.90;;;;;;5027669;28;20057;-59
2021/07/13 07:44:41;;;;;;;41.15;37.03;;;21.40;99.90;;;;;;5032184;28;20045;-58
2021/07/13 07:47:10;;;;;;;40.83;36.72;;;21.40;99.90;;;;;;5033717;28;20161;-59
2021/07/13 07:49:42;;;;;;;42.25;38.05;;;21.40;99.90;;;;;;5033636;28;20045;-59
2021/07/13 07:52:09;;;;;;;42.72;38.30;;;21.40;99.90;;;;;;5028454;28;20052;-59
2021/07/13 07:54:37;;;;;;;45.80;41.10;;;21.40;99.90;;;;;;5028193;28;20099;-59
2021/07/13 07:57:08;;;;;;;43.38;38.92;;;21.40;99.90;;;;;;5026533;28;20640;-60
2021/07/13 07:59:37;;;;;;;42.00;37.83;;;21.40;99.90;;;;;;5027780;28;20103;-59
2021/07/13 08:02:04;;;;;;;41.42;37.00;;;21.40;99.90;;;;;;5027729;28;20195;-54
2021/07/13 08:04:34;;;;;;;40.60;36.63;;;21.40;99.90;;;;;;5027958;28;20042;-59
2021/07/13 08:07:02;;;;;;;42.08;37.85;;;21.60;99.90;;;;;;5028387;28;20394;-61
2021/07/13 08:09:33;;;;;;;42.47;38.15;;;21.50;99.90;;;;;;5026460;28;20049;-58
2021/07/13 08:12:02;;;;;;;;;;;21.40;99.90;;;;;;5033029;28;20409;-61
2021/07/13 08:14:30;;;;;;;39.97;35.88;;;21.40;99.90;;;;;;5029032;28;19971;-58
2021/07/13 08:17:02;;;;;;;39.90;36.00;;;21.40;99.90;;;;;;5028106;28;20053;-59
2021/07/13 08:19:38;;;;;;;41.35;37.35;;;21.50;99.90;;;;;;5027890;28;20049;-59
2021/07/13 08:22:10;;;;;;;41.53;37.47;;;21.50;99.90;;;;;;5026357;28;20481;-59
2021/07/13 08:24:38;;;;;;;40.70;36.70;;;21.50;99.90;;;;;;5028323;28;20156;-59
2021/07/13 08:27:10;;;;;;;37.83;34.22;;;21.40;99.90;;;;;;5033084;28;20048;-59
2021/07/13 08:29:37;;;;;;;39.95;36.13;;;21.40;99.90;;;;;;5027818;28;20060;-60
2021/07/13 08:32:05;;;;;;;38.40;34.63;;;21.60;99.90;;;;;;5026210;28;20584;-60
2021/07/13 08:34:36;;;;;;;38.42;34.55;;;21.60;99.90;;;;;;5027310;28;20049;-61
2021/07/13 08:37:06;;;;;;;39.22;35.42;;;21.70;99.90;;;;;;5027429;28;20064;-57
2021/07/13 08:39:33;;;;;;;36.95;33.53;;;21.70;99.90;;;;;;5031408;28;20050;-59
2021/07/13 08:42:10;;;;;;;38.63;34.92;;;21.80;99.90;;;;;;5033669;28;20447;-59
2021/07/13 08:44:38;;;;;;;34.22;31.02;;;21.80;99.90;;;;;;5026926;28;20391;-58
2021/07/13 08:47:04;;;;;;;39.30;35.67;;;21.80;99.90;;;;;;5026565;28;20557;-57
2021/07/13 08:49:31;;;;;;;32.55;29.52;;;21.80;99.90;;;;;;5021961;28;20046;-60
2021/07/13 08:52:02;;;;;;;32.38;29.55;;;21.90;99.90;;;;;;5017502;28;20049;-60
2021/07/13 08:54:35;;;;;;;31.45;28.75;;;21.90;99.90;;;;;;5026964;28;20425;-59
2021/07/13 08:57:09;;;;;;;29.58;26.98;;;22.00;99.90;;;;;;5028007;28;20051;-58
2021/07/13 08:59:36;;;;;;;29.73;27.27;;;22.10;99.90;;;;;;5027391;28;20049;-58
2021/07/13 09:02:02;;;;;;;29.50;27.00;;;22.20;99.90;;;;;;5029693;28;20107;-58
2021/07/13 09:04:36;;;;;;;29.95;27.45;;;22.10;99.90;;;;;;5026216;28;20517;-58
2021/07/13 09:07:06;;;;;;;30.20;27.42;;;22.10;99.90;;;;;;5028022;28;20474;-58
2021/07/13 09:09:34;;;;;;;31.83;28.98;;;22.20;99.90;;;;;;5026081;28;20174;-58
2021/07/13 09:12:21;;;;;;;32.65;29.95;;;22.40;99.90;;;;;;5026651;28;20140;-58
2021/07/13 09:14:59;;;;;;;30.77;28.17;;;22.30;99.90;;;;;;5026540;28;20049;-58
2021/07/13 09:17:45;;;;;;;30.77;28.17;;;22.40;99.90;;;;;;5027798;28;20056;-58
2021/07/13 09:20:13;;;;;;;32.28;29.52;;;22.40;99.90;;;;;;5029149;28;20068;-58
2021/07/13 09:22:54;;;;;;;31.08;28.58;;;22.40;99.90;;;;;;5030145;28;20061;-58
2021/07/13 09:25:32;;;;;;;32.78;30.02;;;22.30;99.90;;;;;;5030283;28;20053;-58
2021/07/13 09:28:13;;;;;;;33.10;29.85;;;22.30;99.90;;;;;;5032408;28;20539;-58
2021/07/13 09:30:53;;;;;;;31.85;29.05;;;22.40;99.90;;;;;;5034007;28;20115;-55
2021/07/13 09:33:23;;;;;;;33.00;30.10;;;22.30;99.90;;;;;;5037225;28;20548;-56
2021/07/13 09:36:01;;;;;;;96.97;88.10;;;22.30;99.90;;;;;;5031634;28;20053;-53
2021/07/13 09:38:33;;;;;;;129.80;118.18;;;22.40;99.90;;;;;;5032805;28;20045;-56
2021/07/13 09:41:09;;;;;;;53.13;48.42;;;22.40;99.90;;;;;;5045592;28;20815;-55
2021/07/13 09:43:43;;;;;;;31.98;28.98;;;22.40;99.90;;;;;;5030486;28;20057;-57
2021/07/13 09:46:31;;;;;;;30.42;27.63;;;22.50;99.90;;;;;;5045818;28;20060;-57
2021/07/13 09:49:22;;;;;;;30.05;27.55;;;22.50;99.90;;;;;;5030464;28;20103;-54
2021/07/13 09:52:00;;;;;;;40.35;36.75;;;22.30;99.90;;;;;;5031052;28;20405;-56
2021/07/13 09:54:30;;;;;;;33.92;30.73;;;22.30;99.90;;;;;;5030644;28;20123;-53
2021/07/13 09:56:56;;;;;;;31.45;28.85;;;22.20;99.90;;;;;;5030941;28;20057;-56
2021/07/13 09:59:25;;;;;;;31.23;28.63;;;22.20;99.90;;;;;;5035231;28;20041;-53
2021/07/13 10:01:51;;;;;;;35.47;32.47;;;22.20;99.90;;;;;;5029688;28;20049;-54
2021/07/13 10:04:17;;;;;;;32.75;29.95;;;22.20;99.90;;;;;;5030284;28;20068;-53
2021/07/13 10:06:46;;;;;;;36.80;33.63;;;22.10;99.90;;;;;;5033949;28;20195;-54
2021/07/13 10:09:14;;;;;;;32.00;29.15;;;22.30;99.90;;;;;;5050234;28;20055;-53
2021/07/13 10:11:41;;;;;;;31.02;28.33;;;22.40;99.90;;;;;;5045007;28;20049;-55
2021/07/13 10:14:09;;;;;;;32.03;29.23;;;22.50;99.90;;;;;;5029691;28;20049;-56
2021/07/13 10:16:35;;;;;;;32.25;29.55;;;22.50;99.90;;;;;;5010113;28;20054;-57
2021/07/13 10:19:04;;;;;;;33.67;30.85;;;22.60;99.90;;;;;;5010383;28;20054;-49
2021/07/13 10:21:32;;;;;;;33.38;30.38;;;22.60;99.90;;;;;;5012148;28;20135;-52
2021/07/13 10:23:58;;;;;;;34.08;31.00;;;22.60;99.90;;;;;;5030699;28;20148;-52
2021/07/13 10:26:51;;;;;;;35.35;32.08;;;22.60;99.90;;;;;;5030189;28;20045;-52
2021/07/13 10:29:33;;;;;;;34.20;31.00;;;22.70;99.90;;;;;;5030113;28;20394;-57
2021/07/13 10:32:03;;;;;;;33.47;30.63;;;22.80;99.90;;;;;;5032469;28;20122;-50
2021/07/13 10:34:49;;;;;;;34.97;31.83;;;22.80;99.90;;;;;;5030030;28;20053;-49
2021/07/13 10:37:30;;;;;;;35.30;32.20;;;22.80;99.90;;;;;;5029878;28;20083;-57
2021/07/13 10:40:26;;;;;;;34.10;31.13;;;22.80;99.90;;;;;;5028371;28;20053;-53
2021/07/13 10:42:57;;;;;;;36.17;32.90;;;22.80;99.90;;;;;;5029764;28;20173;-56
2021/07/13 10:45:32;;;;;;;34.70;31.70;;;22.70;99.90;;;;;;5029416;28;20057;-52
2021/07/13 10:48:15;;;;;;;39.25;35.65;;;22.70;99.90;;;;;;5032410;28;20047;-52
2021/07/13 10:50:51;;;;;;;35.45;32.42;;;22.50;99.90;;;;;;5029403;28;20148;-48
2021/07/13 10:53:52;;;;;;;37.70;34.40;;;22.50;99.90;;;;;;5028282;28;20049;-54
2021/07/13 10:56:39;;;;;;;37.35;33.97;;;22.40;99.90;;;;;;5026456;28;20421;-54
2021/07/13 10:59:21;;;;;;;35.42;32.47;;;22.50;99.90;;;;;;5027943;28;20053;-52
2021/07/13 11:02:08;;;;;;;34.85;31.85;;;22.60;99.90;;;;;;5029573;28;20049;-55
2021/07/13 11:04:34;;;;;;;37.03;33.67;;;22.60;99.90;;;;;;5029800;28;20444;-51
2021/07/13 11:07:05;;;;;;;35.85;32.65;;;22.70;99.90;;;;;;5028903;28;20678;-52
2021/07/13 11:09:33;;;;;;;37.17;33.95;;;22.60;99.90;;;;;;5028731;28;20050;-50
2021/07/13 11:12:08;;;;;;;38.33;34.80;;;22.60;99.90;;;;;;5029192;28;20049;-49
2021/07/13 11:14:49;;;;;;;37.28;33.95;;;22.60;99.90;;;;;;5028815;28;20053;-52
2021/07/13 11:17:19;;;;;;;39.80;36.30;;;22.60;99.90;;;;;;5028863;28;20164;-52
2021/07/13 11:19:48;;;;;;;37.30;34.08;;;22.50;99.90;;;;;;5028413;28;20127;-52
2021/07/13 11:22:19;;;;;;;35.42;32.47;;;22.50;99.90;;;;;;5028345;28;20591;-50
2021/07/13 11:24:46;;;;;;;37.28;34.05;;;22.60;99.90;;;;;;5011412;28;20189;-49
2021/07/13 11:27:16;;;;;;;37.72;34.60;;;22.70;99.90;;;;;;5008861;28;20046;-52
2021/07/13 11:29:50;;;;;;;37.97;34.78;;;22.80;99.90;;;;;;5009030;28;20188;-53
2021/07/13 11:32:16;;;;;;;36.97;33.88;;;22.90;99.90;;;;;;5026831;28;20057;-53
2021/07/13 11:34:43;;;;;;;38.83;35.63;;;23.00;99.90;;;;;;5028533;28;20053;-53
2021/07/13 11:37:17;;;;;;;38.45;35.20;;;22.90;99.90;;;;;;5026641;28;20095;-51
2021/07/13 11:39:46;;;;;;;37.55;34.47;;;22.90;99.90;;;;;;5034190;28;20045;-47
2021/07/13 11:42:16;;;;;;;38.95;35.85;;;22.90;99.90;;;;;;5027997;28;20049;-55
2021/07/13 11:44:48;;;;;;;36.03;33.00;;;22.90;99.90;;;;;;5028447;28;20049;-52
2021/07/13 11:47:18;;;;;;;35.58;32.45;;;22.80;99.90;;;;;;5029991;28;20045;-51
2021/07/13 11:49:59;;;;;;;37.58;34.17;;;22.80;99.90;;;;;;5028164;28;20525;-52
2021/07/13 11:52:29;;;;;;;;;;;22.70;99.90;;;;;;5026723;28;20041;-50
2021/07/13 11:55:04;;;;;;;35.65;32.53;;;22.70;99.90;;;;;;5010712;28;19928;-52
2021/07/13 11:57:33;;;;;;;35.63;32.67;;;22.70;99.90;;;;;;5035070;28;20744;-52
2021/07/13 12:00:05;;;;;;;33.13;30.45;;;22.80;99.90;;;;;;5027900;28;20103;-59
2021/07/13 12:02:37;;;;;;;32.90;30.10;;;22.70;99.90;;;;;;5028303;28;20053;-56
2021/07/13 12:05:18;;;;;;;32.58;29.67;;;22.70;99.90;;;;;;5028016;28;20061;-55
2021/07/13 12:07:47;;;;;;;33.75;30.65;;;22.70;99.90;;;;;;5027751;28;20132;-55
2021/07/13 12:10:21;;;;;;;34.45;31.33;;;22.60;99.90;;;;;;5033775;28;20068;-56
2021/07/13 12:12:48;;;;;;;35.67;32.53;;;22.70;99.90;;;;;;5028769;28;20115;-55
2021/07/13 12:15:23;;;;;;;32.92;30.13;;;22.70;99.90;;;;;;5026356;28;20045;-54
2021/07/13 12:17:55;;;;;;;32.40;29.50;;;22.70;99.90;;;;;;5029229;28;20053;-51
2021/07/13 12:20:24;;;;;;;33.83;30.95;;;22.80;99.90;;;;;;5027599;28;20050;-51
2021/07/13 12:22:55;;;;;;;33.10;30.35;;;22.80;99.90;;;;;;5026774;28;20059;-51
2021/07/13 12:25:24;;;;;;;33.72;30.73;;;22.80;99.90;;;;;;5027858;28;20418;-51
2021/07/13 12:27:50;;;;;;;32.40;29.77;;;22.70;99.90;;;;;;5027743;28;20057;-48
2021/07/13 12:30:16;;;;;;;32.38;29.67;;;22.60;99.90;;;;;;5027603;28;20136;-49
2021/07/13 12:33:04;;;;;;;33.45;30.63;;;22.40;99.90;;;;;;5008167;28;20084;-49
2021/07/13 12:35:30;;;;;;;32.13;29.33;;;22.40;99.90;;;;;;5016323;28;20050;-49
2021/07/13 12:38:13;;;;;;;34.33;31.40;;;22.40;99.90;;;;;;5026743;28;20058;-50
2021/07/13 12:40:43;;;;;;;32.33;29.58;;;22.30;99.90;;;;;;5027431;28;20851;-50
2021/07/13 12:43:14;;;;;;;;;;;22.30;99.90;;;;;;5028367;28;20123;-52
2021/07/13 12:45:51;;;;;;;33.03;29.92;;;22.30;99.90;;;;;;5027397;28;19951;-48
2021/07/13 12:48:32;;;;;;;43.55;39.88;;;22.30;99.90;;;;;;5027423;28;20080;-49
2021/07/13 12:51:03;;;;;;;30.83;28.08;;;22.50;99.90;;;;;;5024980;28;20049;-48